sensor_id;sensor_type;location;lat;lon;timestamp;temperature;humidity
32640;DHT22;19049;52.524;11.468;2022-08-01T00:01:39;19.80;82.00
32640;DHT22;19049;52.524;11.468;2022-08-01T00:56:17;20.80;87.30
32640;DHT22;19049;52.524;11.468;2022-08-01T01:02:25;20.90;85.30
32640;DHT22;19049;52.524;11.468;2022-08-01T01:31:24;21.10;88.20
32640;DHT22;19049;52.524;11.468;2022-08-01T01:34:29;21.10;87.30
32640;DHT22;19049;52.524;11.468;2022-08-01T02:08:19;21.20;90.00
32640;DHT22;19049;52.524;11.468;2022-08-01T02:17:33;21.20;89.80
32640;DHT22;19049;52.524;11.468;2022-08-01T02:20:38;21.20;90.00
32640;DHT22;19049;52.524;11.468;2022-08-01T02:23:37;21.20;89.70
32640;DHT22;19049;52.524;11.468;2022-08-01T02:26:14;21.20;90.10
32640;DHT22;19049;52.524;11.468;2022-08-01T02:29:14;21.20;90.20
32640;DHT22;19049;52.524;11.468;2022-08-01T02:31:48;21.20;89.30
32640;DHT22;19049;52.524;11.468;2022-08-01T02:34:52;21.30;88.60
32640;DHT22;19049;52.524;11.468;2022-08-01T02:57:32;21.30;89.20
32640;DHT22;19049;52.524;11.468;2022-08-01T03:00:20;21.30;90.10
32640;DHT22;19049;52.524;11.468;2022-08-01T03:03:12;21.30;89.20
32640;DHT22;19049;52.524;11.468;2022-08-01T03:09:49;21.30;88.70
32640;DHT22;19049;52.524;11.468;2022-08-01T03:22:56;21.30;89.90
32640;DHT22;19049;52.524;11.468;2022-08-01T03:25:46;21.30;88.80
32640;DHT22;19049;52.524;11.468;2022-08-01T03:28:21;21.30;88.90
32640;DHT22;19049;52.524;11.468;2022-08-01T03:30:53;21.30;88.60
32640;DHT22;19049;52.524;11.468;2022-08-01T03:33:20;21.30;88.70
32640;DHT22;19049;52.524;11.468;2022-08-01T03:35:58;21.30;89.30
32640;DHT22;19049;52.524;11.468;2022-08-01T03:38:31;21.30;88.80
32640;DHT22;19049;52.524;11.468;2022-08-01T03:41:26;21.30;90.00
32640;DHT22;19049;52.524;11.468;2022-08-01T03:44:11;21.30;89.70
32640;DHT22;19049;52.524;11.468;2022-08-01T03:46:50;21.30;89.60
32640;DHT22;19049;52.524;11.468;2022-08-01T03:50:09;21.30;90.00
32640;DHT22;19049;52.524;11.468;2022-08-01T03:53:04;21.40;90.30
32640;DHT22;19049;52.524;11.468;2022-08-01T03:55:46;21.30;90.30
32640;DHT22;19049;52.524;11.468;2022-08-01T03:58:51;21.40;90.20
32640;DHT22;19049;52.524;11.468;2022-08-01T04:01:26;21.40;90.30
32640;DHT22;19049;52.524;11.468;2022-08-01T04:11:17;21.30;91.00
32640;DHT22;19049;52.524;11.468;2022-08-01T04:17:11;21.30;90.30
32640;DHT22;19049;52.524;11.468;2022-08-01T04:19:37;21.30;90.60
32640;DHT22;19049;52.524;11.468;2022-08-01T04:22:04;21.30;90.50
32640;DHT22;19049;52.524;11.468;2022-08-01T04:24:31;21.20;90.90
32640;DHT22;19049;52.524;11.468;2022-08-01T04:26:59;21.20;90.90
32640;DHT22;19049;52.524;11.468;2022-08-01T04:29:26;21.10;91.50
32640;DHT22;19049;52.524;11.468;2022-08-01T04:31:54;21.10;91.80
32640;DHT22;19049;52.524;11.468;2022-08-01T04:34:23;21.00;92.30
32640;DHT22;19049;52.524;11.468;2022-08-01T04:36:54;20.90;92.60
32640;DHT22;19049;52.524;11.468;2022-08-01T04:39:20;20.90;92.80
32640;DHT22;19049;52.524;11.468;2022-08-01T04:41:51;20.90;93.50
32640;DHT22;19049;52.524;11.468;2022-08-01T04:44:24;20.80;93.20
32640;DHT22;19049;52.524;11.468;2022-08-01T04:46:56;20.80;93.30
32640;DHT22;19049;52.524;11.468;2022-08-01T04:49:22;20.80;94.00
32640;DHT22;19049;52.524;11.468;2022-08-01T04:51:51;20.70;93.60
32640;DHT22;19049;52.524;11.468;2022-08-01T04:54:21;20.70;93.80
32640;DHT22;19049;52.524;11.468;2022-08-01T04:56:58;20.70;93.70
32640;DHT22;19049;52.524;11.468;2022-08-01T04:59:57;20.60;93.50
32640;DHT22;19049;52.524;11.468;2022-08-01T05:02:46;20.60;94.10
32640;DHT22;19049;52.524;11.468;2022-08-01T05:05:12;20.60;93.80
32640;DHT22;19049;52.524;11.468;2022-08-01T05:07:40;20.60;93.50
32640;DHT22;19049;52.524;11.468;2022-08-01T05:10:09;20.60;93.80
32640;DHT22;19049;52.524;11.468;2022-08-01T05:12:37;20.50;93.80
32640;DHT22;19049;52.524;11.468;2022-08-01T05:15:12;20.50;93.70
32640;DHT22;19049;52.524;11.468;2022-08-01T05:17:40;20.50;93.70
32640;DHT22;19049;52.524;11.468;2022-08-01T05:20:07;20.60;93.90
32640;DHT22;19049;52.524;11.468;2022-08-01T05:22:58;20.50;94.10
32640;DHT22;19049;52.524;11.468;2022-08-01T05:25:28;20.60;94.00
32640;DHT22;19049;52.524;11.468;2022-08-01T05:27:53;20.60;94.40
32640;DHT22;19049;52.524;11.468;2022-08-01T05:30:21;20.60;94.50
32640;DHT22;19049;52.524;11.468;2022-08-01T05:33:04;20.70;94.60
32640;DHT22;19049;52.524;11.468;2022-08-01T05:35:33;20.70;94.80
32640;DHT22;19049;52.524;11.468;2022-08-01T05:38:08;20.80;94.80
32640;DHT22;19049;52.524;11.468;2022-08-01T05:40:36;20.80;94.80
32640;DHT22;19049;52.524;11.468;2022-08-01T05:43:11;20.80;94.90
32640;DHT22;19049;52.524;11.468;2022-08-01T05:45:39;20.90;94.70
32640;DHT22;19049;52.524;11.468;2022-08-01T05:48:12;20.90;94.80
32640;DHT22;19049;52.524;11.468;2022-08-01T05:53:39;21.00;94.90
32640;DHT22;19049;52.524;11.468;2022-08-01T05:59:46;21.00;94.50
32640;DHT22;19049;52.524;11.468;2022-08-01T06:02:42;21.10;94.80
32640;DHT22;19049;52.524;11.468;2022-08-01T06:33:57;21.70;93.80
32640;DHT22;19049;52.524;11.468;2022-08-01T06:40:24;21.80;93.90
32640;DHT22;19049;52.524;11.468;2022-08-01T07:04:08;21.50;93.10
32640;DHT22;19049;52.524;11.468;2022-08-01T07:09:49;21.50;93.20
32640;DHT22;19049;52.524;11.468;2022-08-01T07:12:49;21.40;93.10
32640;DHT22;19049;52.524;11.468;2022-08-01T07:15:50;21.30;93.30
32640;DHT22;19049;52.524;11.468;2022-08-01T07:27:46;21.10;93.60
32640;DHT22;19049;52.524;11.468;2022-08-01T07:30:54;21.10;93.30
32640;DHT22;19049;52.524;11.468;2022-08-01T07:34:31;21.20;93.50
32640;DHT22;19049;52.524;11.468;2022-08-01T07:36:56;21.30;93.70
32640;DHT22;19049;52.524;11.468;2022-08-01T07:39:37;21.40;93.80
32640;DHT22;19049;52.524;11.468;2022-08-01T07:45:37;21.70;92.70
32640;DHT22;19049;52.524;11.468;2022-08-01T07:48:09;21.90;92.70
32640;DHT22;19049;52.524;11.468;2022-08-01T07:57:38;22.10;91.00
32640;DHT22;19049;52.524;11.468;2022-08-01T08:00:06;22.10;90.50
32640;DHT22;19049;52.524;11.468;2022-08-01T08:05:28;22.10;90.80
32640;DHT22;19049;52.524;11.468;2022-08-01T08:15:38;22.30;91.40
32640;DHT22;19049;52.524;11.468;2022-08-01T08:21:47;22.90;90.40
32640;DHT22;19049;52.524;11.468;2022-08-01T08:24:13;23.10;90.50
32640;DHT22;19049;52.524;11.468;2022-08-01T08:27:28;23.30;90.40
32640;DHT22;19049;52.524;11.468;2022-08-01T08:33:31;23.90;88.90
32640;DHT22;19049;52.524;11.468;2022-08-01T08:35:57;24.10;88.30
32640;DHT22;19049;52.524;11.468;2022-08-01T08:38:33;24.30;87.40
32640;DHT22;19049;52.524;11.468;2022-08-01T08:41:02;24.40;85.10
32640;DHT22;19049;52.524;11.468;2022-08-01T08:43:35;24.50;86.30
32640;DHT22;19049;52.524;11.468;2022-08-01T08:46:01;24.50;84.60
32640;DHT22;19049;52.524;11.468;2022-08-01T08:48:32;24.40;82.00
32640;DHT22;19049;52.524;11.468;2022-08-01T08:51:02;24.40;81.90
32640;DHT22;19049;52.524;11.468;2022-08-01T08:53:35;24.30;81.10
32640;DHT22;19049;52.524;11.468;2022-08-01T08:56:21;24.20;82.10
32640;DHT22;19049;52.524;11.468;2022-08-01T09:05:36;24.00;79.80
32640;DHT22;19049;52.524;11.468;2022-08-01T09:08:13;23.90;81.60
32640;DHT22;19049;52.524;11.468;2022-08-01T09:10:53;23.90;82.80
32640;DHT22;19049;52.524;11.468;2022-08-01T09:13:24;23.80;83.20
32640;DHT22;19049;52.524;11.468;2022-08-01T09:20:04;23.70;83.40
32640;DHT22;19049;52.524;11.468;2022-08-01T09:22:35;23.60;85.10
32640;DHT22;19049;52.524;11.468;2022-08-01T09:25:09;23.80;86.50
32640;DHT22;19049;52.524;11.468;2022-08-01T09:27:40;23.90;86.20
32640;DHT22;19049;52.524;11.468;2022-08-01T09:30:20;23.90;84.90
32640;DHT22;19049;52.524;11.468;2022-08-01T09:33:11;24.00;83.60
32640;DHT22;19049;52.524;11.468;2022-08-01T09:35:54;23.80;80.90
32640;DHT22;19049;52.524;11.468;2022-08-01T09:45:06;23.50;82.30
32640;DHT22;19049;52.524;11.468;2022-08-01T09:48:06;23.50;84.80
32640;DHT22;19049;52.524;11.468;2022-08-01T09:50:51;23.50;84.10
32640;DHT22;19049;52.524;11.468;2022-08-01T09:53:50;23.70;85.40
32640;DHT22;19049;52.524;11.468;2022-08-01T10:06:31;25.00;79.80
32640;DHT22;19049;52.524;11.468;2022-08-01T10:08:57;25.40;83.80
32640;DHT22;19049;52.524;11.468;2022-08-01T10:11:23;25.50;82.00
32640;DHT22;19049;52.524;11.468;2022-08-01T10:13:52;25.50;80.10
32640;DHT22;19049;52.524;11.468;2022-08-01T10:16:20;25.40;80.50
32640;DHT22;19049;52.524;11.468;2022-08-01T10:18:56;25.20;80.20
32640;DHT22;19049;52.524;11.468;2022-08-01T10:24:56;24.70;79.70
32640;DHT22;19049;52.524;11.468;2022-08-01T10:31:18;24.40;81.70
32640;DHT22;19049;52.524;11.468;2022-08-01T10:34:04;24.30;80.20
32640;DHT22;19049;52.524;11.468;2022-08-01T10:57:12;24.90;82.60
32640;DHT22;19049;52.524;11.468;2022-08-01T11:31:27;27.00;69.40
32640;DHT22;19049;52.524;11.468;2022-08-01T11:37:46;27.80;69.80
32640;DHT22;19049;52.524;11.468;2022-08-01T11:40:31;28.10;65.90
32640;DHT22;19049;52.524;11.468;2022-08-01T11:43:20;28.10;61.40
32640;DHT22;19049;52.524;11.468;2022-08-01T11:45:54;28.00;61.70
32640;DHT22;19049;52.524;11.468;2022-08-01T11:48:26;27.90;62.30
32640;DHT22;19049;52.524;11.468;2022-08-01T11:50:53;27.80;63.90
32640;DHT22;19049;52.524;11.468;2022-08-01T11:53:28;27.70;63.20
32640;DHT22;19049;52.524;11.468;2022-08-01T11:55:58;27.70;63.00
32640;DHT22;19049;52.524;11.468;2022-08-01T12:01:47;27.50;64.50
32640;DHT22;19049;52.524;11.468;2022-08-01T12:05:00;27.30;64.50
32640;DHT22;19049;52.524;11.468;2022-08-01T12:12:04;26.90;62.80
32640;DHT22;19049;52.524;11.468;2022-08-01T12:19:00;26.50;61.70
32640;DHT22;19049;52.524;11.468;2022-08-01T12:42:12;27.60;61.80
32640;DHT22;19049;52.524;11.468;2022-08-01T12:48:39;27.80;63.90
32640;DHT22;19049;52.524;11.468;2022-08-01T12:58:33;27.90;63.80
32640;DHT22;19049;52.524;11.468;2022-08-01T13:01:36;27.80;64.20
32640;DHT22;19049;52.524;11.468;2022-08-01T13:14:27;27.10;59.50
32640;DHT22;19049;52.524;11.468;2022-08-01T13:17:05;26.90;63.70
32640;DHT22;19049;52.524;11.468;2022-08-01T13:19:54;26.90;63.60
32640;DHT22;19049;52.524;11.468;2022-08-01T13:22:52;26.90;64.20
32640;DHT22;19049;52.524;11.468;2022-08-01T13:28:32;27.20;64.10
32640;DHT22;19049;52.524;11.468;2022-08-01T13:31:31;27.50;66.30
32640;DHT22;19049;52.524;11.468;2022-08-01T13:41:18;28.40;61.80
32640;DHT22;19049;52.524;11.468;2022-08-01T13:43:50;28.60;56.90
32640;DHT22;19049;52.524;11.468;2022-08-01T13:46:18;28.70;56.50
32640;DHT22;19049;52.524;11.468;2022-08-01T13:48:59;28.60;57.40
32640;DHT22;19049;52.524;11.468;2022-08-01T13:51:30;28.50;57.10
32640;DHT22;19049;52.524;11.468;2022-08-01T13:54:28;28.30;55.70
32640;DHT22;19049;52.524;11.468;2022-08-01T14:00:54;28.20;55.90
32640;DHT22;19049;52.524;11.468;2022-08-01T14:04:07;28.30;55.70
32640;DHT22;19049;52.524;11.468;2022-08-01T14:10:24;28.40;57.20
32640;DHT22;19049;52.524;11.468;2022-08-01T14:14:25;28.50;54.90
32640;DHT22;19049;52.524;11.468;2022-08-01T14:16:52;28.60;53.80
32640;DHT22;19049;52.524;11.468;2022-08-01T14:20:00;28.80;56.90
32640;DHT22;19049;52.524;11.468;2022-08-01T14:25:55;29.30;52.20
32640;DHT22;19049;52.524;11.468;2022-08-01T14:28:26;29.70;56.40
32640;DHT22;19049;52.524;11.468;2022-08-01T14:30:55;29.90;57.10
32640;DHT22;19049;52.524;11.468;2022-08-01T14:33:44;30.20;55.30
32640;DHT22;19049;52.524;11.468;2022-08-01T14:36:53;30.40;54.20
32640;DHT22;19049;52.524;11.468;2022-08-01T14:46:38;30.10;47.50
32640;DHT22;19049;52.524;11.468;2022-08-01T14:52:04;29.70;46.50
32640;DHT22;19049;52.524;11.468;2022-08-01T14:54:37;29.50;49.30
32640;DHT22;19049;52.524;11.468;2022-08-01T14:57:06;29.30;48.60
32640;DHT22;19049;52.524;11.468;2022-08-01T14:59:31;29.30;50.70
32640;DHT22;19049;52.524;11.468;2022-08-01T15:02:25;29.30;50.50
32640;DHT22;19049;52.524;11.468;2022-08-01T15:04:59;29.30;49.50
32640;DHT22;19049;52.524;11.468;2022-08-01T15:08:02;29.20;49.30
32640;DHT22;19049;52.524;11.468;2022-08-01T15:10:33;29.10;48.50
32640;DHT22;19049;52.524;11.468;2022-08-01T15:13:10;29.20;49.60
32640;DHT22;19049;52.524;11.468;2022-08-01T15:16:18;29.20;50.10
32640;DHT22;19049;52.524;11.468;2022-08-01T15:18:47;29.30;50.90
32640;DHT22;19049;52.524;11.468;2022-08-01T15:21:13;29.20;51.00
32640;DHT22;19049;52.524;11.468;2022-08-01T15:23:53;29.10;50.70
32640;DHT22;19049;52.524;11.468;2022-08-01T15:26:22;29.00;49.00
32640;DHT22;19049;52.524;11.468;2022-08-01T15:28:50;28.90;50.20
32640;DHT22;19049;52.524;11.468;2022-08-01T15:31:21;28.70;51.10
32640;DHT22;19049;52.524;11.468;2022-08-01T15:33:49;28.50;52.00
32640;DHT22;19049;52.524;11.468;2022-08-01T15:36:38;28.40;52.30
32640;DHT22;19049;52.524;11.468;2022-08-01T15:39:42;28.30;52.40
32640;DHT22;19049;52.524;11.468;2022-08-01T15:48:55;28.10;52.00
32640;DHT22;19049;52.524;11.468;2022-08-01T15:51:23;28.20;51.20
32640;DHT22;19049;52.524;11.468;2022-08-01T15:53:52;28.40;53.90
32640;DHT22;19049;52.524;11.468;2022-08-01T15:58:59;28.50;51.50
32640;DHT22;19049;52.524;11.468;2022-08-01T16:02:03;28.50;52.10
32640;DHT22;19049;52.524;11.468;2022-08-01T16:05:02;28.50;51.40
32640;DHT22;19049;52.524;11.468;2022-08-01T16:07:28;28.70;50.20
32640;DHT22;19049;52.524;11.468;2022-08-01T16:10:16;28.70;48.70
32640;DHT22;19049;52.524;11.468;2022-08-01T16:13:03;28.70;48.50
32640;DHT22;19049;52.524;11.468;2022-08-01T16:15:41;28.70;46.70
32640;DHT22;19049;52.524;11.468;2022-08-01T16:18:33;28.80;47.80
32640;DHT22;19049;52.524;11.468;2022-08-01T16:24:24;29.00;47.70
32640;DHT22;19049;52.524;11.468;2022-08-01T16:26:59;29.00;50.70
32640;DHT22;19049;52.524;11.468;2022-08-01T16:29:45;29.00;50.50
32640;DHT22;19049;52.524;11.468;2022-08-01T16:32:13;28.90;51.40
32640;DHT22;19049;52.524;11.468;2022-08-01T16:37:30;28.60;51.10
32640;DHT22;19049;52.524;11.468;2022-08-01T16:40:18;28.40;50.90
32640;DHT22;19049;52.524;11.468;2022-08-01T16:42:44;28.20;50.10
32640;DHT22;19049;52.524;11.468;2022-08-01T16:45:15;28.00;51.10
32640;DHT22;19049;52.524;11.468;2022-08-01T16:47:55;27.80;51.40
32640;DHT22;19049;52.524;11.468;2022-08-01T16:50:27;27.60;51.90
32640;DHT22;19049;52.524;11.468;2022-08-01T16:52:52;27.50;52.80
32640;DHT22;19049;52.524;11.468;2022-08-01T16:55:21;27.40;52.80
32640;DHT22;19049;52.524;11.468;2022-08-01T16:57:52;27.20;53.30
32640;DHT22;19049;52.524;11.468;2022-08-01T17:00:22;27.10;53.90
32640;DHT22;19049;52.524;11.468;2022-08-01T17:02:53;27.10;53.90
32640;DHT22;19049;52.524;11.468;2022-08-01T17:05:20;27.00;53.80
32640;DHT22;19049;52.524;11.468;2022-08-01T17:08:12;26.90;53.70
32640;DHT22;19049;52.524;11.468;2022-08-01T17:14:25;26.70;53.60
32640;DHT22;19049;52.524;11.468;2022-08-01T17:20:12;26.50;53.60
32640;DHT22;19049;52.524;11.468;2022-08-01T17:33:49;25.90;53.90
32640;DHT22;19049;52.524;11.468;2022-08-01T17:39:44;25.70;53.90
32640;DHT22;19049;52.524;11.468;2022-08-01T17:42:10;25.70;55.00
32640;DHT22;19049;52.524;11.468;2022-08-01T17:44:43;25.60;55.60
32640;DHT22;19049;52.524;11.468;2022-08-01T17:47:25;25.60;55.60
32640;DHT22;19049;52.524;11.468;2022-08-01T17:50:00;25.50;55.20
32640;DHT22;19049;52.524;11.468;2022-08-01T17:52:32;25.50;54.90
32640;DHT22;19049;52.524;11.468;2022-08-01T17:55:06;25.60;55.60
32640;DHT22;19049;52.524;11.468;2022-08-01T17:57:46;25.70;56.10
32640;DHT22;19049;52.524;11.468;2022-08-01T18:00:33;25.80;56.80
32640;DHT22;19049;52.524;11.468;2022-08-01T18:03:10;25.80;56.00
32640;DHT22;19049;52.524;11.468;2022-08-01T18:05:40;25.90;55.70
32640;DHT22;19049;52.524;11.468;2022-08-01T18:08:09;25.80;55.60
32640;DHT22;19049;52.524;11.468;2022-08-01T18:10:44;25.80;55.50
32640;DHT22;19049;52.524;11.468;2022-08-01T18:13:12;25.80;55.60
32640;DHT22;19049;52.524;11.468;2022-08-01T18:16:14;25.70;54.50
32640;DHT22;19049;52.524;11.468;2022-08-01T18:18:41;25.60;54.30
32640;DHT22;19049;52.524;11.468;2022-08-01T18:21:12;25.60;55.60
32640;DHT22;19049;52.524;11.468;2022-08-01T18:24:13;25.40;54.90
32640;DHT22;19049;52.524;11.468;2022-08-01T18:32:56;24.90;55.90
32640;DHT22;19049;52.524;11.468;2022-08-01T18:35:25;24.70;56.30
32640;DHT22;19049;52.524;11.468;2022-08-01T18:37:52;24.50;56.80
32640;DHT22;19049;52.524;11.468;2022-08-01T18:40:27;24.40;57.30
32640;DHT22;19049;52.524;11.468;2022-08-01T18:42:58;24.20;57.60
32640;DHT22;19049;52.524;11.468;2022-08-01T18:45:42;24.10;58.10
32640;DHT22;19049;52.524;11.468;2022-08-01T18:48:20;23.90;58.20
32640;DHT22;19049;52.524;11.468;2022-08-01T18:50:48;23.80;58.80
32640;DHT22;19049;52.524;11.468;2022-08-01T18:53:14;23.60;59.00
32640;DHT22;19049;52.524;11.468;2022-08-01T18:55:42;23.50;59.20
32640;DHT22;19049;52.524;11.468;2022-08-01T18:58:08;23.30;59.40
32640;DHT22;19049;52.524;11.468;2022-08-01T19:00:41;23.20;59.70
32640;DHT22;19049;52.524;11.468;2022-08-01T19:05:56;22.90;60.30
32640;DHT22;19049;52.524;11.468;2022-08-01T19:08:57;22.70;60.70
32640;DHT22;19049;52.524;11.468;2022-08-01T19:11:37;22.60;61.00
32640;DHT22;19049;52.524;11.468;2022-08-01T19:17:05;22.30;62.10
32640;DHT22;19049;52.524;11.468;2022-08-01T19:19:36;22.10;62.20
32640;DHT22;19049;52.524;11.468;2022-08-01T19:22:05;22.00;62.60
32640;DHT22;19049;52.524;11.468;2022-08-01T19:24:34;21.90;62.80
32640;DHT22;19049;52.524;11.468;2022-08-01T19:27:04;21.80;63.30
32640;DHT22;19049;52.524;11.468;2022-08-01T19:29:37;21.60;63.40
32640;DHT22;19049;52.524;11.468;2022-08-01T19:32:07;21.50;63.80
32640;DHT22;19049;52.524;11.468;2022-08-01T19:34:40;21.40;64.20
32640;DHT22;19049;52.524;11.468;2022-08-01T19:37:08;21.30;64.40
32640;DHT22;19049;52.524;11.468;2022-08-01T19:39:40;21.20;64.70
32640;DHT22;19049;52.524;11.468;2022-08-01T19:42:19;21.00;65.00
32640;DHT22;19049;52.524;11.468;2022-08-01T19:44:55;20.90;64.40
32640;DHT22;19049;52.524;11.468;2022-08-01T19:47:31;20.80;65.50
32640;DHT22;19049;52.524;11.468;2022-08-01T19:50:04;20.70;65.80
32640;DHT22;19049;52.524;11.468;2022-08-01T19:52:37;20.60;66.30
32640;DHT22;19049;52.524;11.468;2022-08-01T19:57:59;20.50;66.90
32640;DHT22;19049;52.524;11.468;2022-08-01T20:00:25;20.40;66.30
32640;DHT22;19049;52.524;11.468;2022-08-01T20:02:57;20.40;67.40
32640;DHT22;19049;52.524;11.468;2022-08-01T20:05:24;20.30;67.90
32640;DHT22;19049;52.524;11.468;2022-08-01T20:07:58;20.30;68.00
32640;DHT22;19049;52.524;11.468;2022-08-01T20:10:31;20.20;68.20
32640;DHT22;19049;52.524;11.468;2022-08-01T20:12:56;20.20;68.30
32640;DHT22;19049;52.524;11.468;2022-08-01T20:15:25;20.20;68.50
32640;DHT22;19049;52.524;11.468;2022-08-01T20:17:51;20.10;68.60
32640;DHT22;19049;52.524;11.468;2022-08-01T20:20:37;20.10;68.70
32640;DHT22;19049;52.524;11.468;2022-08-01T20:23:49;20.10;68.90
32640;DHT22;19049;52.524;11.468;2022-08-01T20:25:56;20.00;68.80
32640;DHT22;19049;52.524;11.468;2022-08-01T20:28:27;20.00;69.10
32640;DHT22;19049;52.524;11.468;2022-08-01T20:30:59;19.90;69.10
32640;DHT22;19049;52.524;11.468;2022-08-01T20:33:25;19.90;69.20
32640;DHT22;19049;52.524;11.468;2022-08-01T20:35:56;19.80;69.40
32640;DHT22;19049;52.524;11.468;2022-08-01T20:38:25;19.80;69.50
32640;DHT22;19049;52.524;11.468;2022-08-01T20:40:54;19.70;69.70
32640;DHT22;19049;52.524;11.468;2022-08-01T20:43:26;19.70;69.90
32640;DHT22;19049;52.524;11.468;2022-08-01T20:45:52;19.70;69.90
32640;DHT22;19049;52.524;11.468;2022-08-01T20:51:06;19.70;70.00
32640;DHT22;19049;52.524;11.468;2022-08-01T20:53:40;19.60;69.90
32640;DHT22;19049;52.524;11.468;2022-08-01T20:56:14;19.60;70.00
32640;DHT22;19049;52.524;11.468;2022-08-01T21:07:57;19.50;69.80
32640;DHT22;19049;52.524;11.468;2022-08-01T21:10:06;19.50;69.90
32640;DHT22;19049;52.524;11.468;2022-08-01T21:13:05;19.40;69.60
32640;DHT22;19049;52.524;11.468;2022-08-01T21:15:39;19.40;69.60
32640;DHT22;19049;52.524;11.468;2022-08-01T21:18:19;19.30;69.90
32640;DHT22;19049;52.524;11.468;2022-08-01T21:21:07;19.20;69.70
32640;DHT22;19049;52.524;11.468;2022-08-01T21:23:42;19.20;69.70
32640;DHT22;19049;52.524;11.468;2022-08-01T21:26:18;19.10;69.70
32640;DHT22;19049;52.524;11.468;2022-08-01T21:28:49;19.10;69.90
32640;DHT22;19049;52.524;11.468;2022-08-01T21:31:17;19.00;70.00
32640;DHT22;19049;52.524;11.468;2022-08-01T21:33:46;18.90;70.10
32640;DHT22;19049;52.524;11.468;2022-08-01T21:36:13;18.80;70.10
32640;DHT22;19049;52.524;11.468;2022-08-01T21:38:44;18.70;70.60
32640;DHT22;19049;52.524;11.468;2022-08-01T21:41:11;18.60;70.50
32640;DHT22;19049;52.524;11.468;2022-08-01T21:43:59;18.50;70.70
32640;DHT22;19049;52.524;11.468;2022-08-01T21:46:26;18.40;70.90
32640;DHT22;19049;52.524;11.468;2022-08-01T21:48:54;18.40;71.10
32640;DHT22;19049;52.524;11.468;2022-08-01T21:54:33;18.20;71.40
32640;DHT22;19049;52.524;11.468;2022-08-01T22:00:13;17.90;72.20
32640;DHT22;19049;52.524;11.468;2022-08-01T22:05:27;17.70;72.60
32640;DHT22;19049;52.524;11.468;2022-08-01T22:08:01;17.60;72.80
32640;DHT22;19049;52.524;11.468;2022-08-01T22:10:28;17.50;73.20
32640;DHT22;19049;52.524;11.468;2022-08-01T22:12:53;17.40;73.40
32640;DHT22;19049;52.524;11.468;2022-08-01T22:15:27;17.40;73.70
32640;DHT22;19049;52.524;11.468;2022-08-01T22:18:17;17.30;74.50
32640;DHT22;19049;52.524;11.468;2022-08-01T22:20:48;17.20;74.20
32640;DHT22;19049;52.524;11.468;2022-08-01T22:23:13;17.10;74.40
32640;DHT22;19049;52.524;11.468;2022-08-01T22:26:10;17.10;74.50
32640;DHT22;19049;52.524;11.468;2022-08-01T22:28:38;17.00;75.20
32640;DHT22;19049;52.524;11.468;2022-08-01T22:31:14;16.90;75.10
32640;DHT22;19049;52.524;11.468;2022-08-01T22:33:40;16.80;75.10
32640;DHT22;19049;52.524;11.468;2022-08-01T22:36:06;16.80;75.10
32640;DHT22;19049;52.524;11.468;2022-08-01T22:38:35;16.70;75.40
32640;DHT22;19049;52.524;11.468;2022-08-01T22:41:07;16.60;75.50
32640;DHT22;19049;52.524;11.468;2022-08-01T22:44:08;16.50;75.80
32640;DHT22;19049;52.524;11.468;2022-08-01T22:46:47;16.40;77.20
32640;DHT22;19049;52.524;11.468;2022-08-01T22:49:33;16.40;76.50
32640;DHT22;19049;52.524;11.468;2022-08-01T22:52:17;16.30;76.90
32640;DHT22;19049;52.524;11.468;2022-08-01T22:54:49;16.20;77.20
32640;DHT22;19049;52.524;11.468;2022-08-01T22:57:23;16.20;77.10
32640;DHT22;19049;52.524;11.468;2022-08-01T23:00:19;16.10;77.30
32640;DHT22;19049;52.524;11.468;2022-08-01T23:03:19;16.00;77.40
32640;DHT22;19049;52.524;11.468;2022-08-01T23:09:08;15.80;77.70
32640;DHT22;19049;52.524;11.468;2022-08-01T23:21:44;15.40;78.80
32640;DHT22;19049;52.524;11.468;2022-08-01T23:24:10;15.30;78.70
32640;DHT22;19049;52.524;11.468;2022-08-01T23:33:46;15.00;79.70
32640;DHT22;19049;52.524;11.468;2022-08-01T23:36:14;14.90;79.90
32640;DHT22;19049;52.524;11.468;2022-08-01T23:38:45;14.80;79.50
32640;DHT22;19049;52.524;11.468;2022-08-01T23:41:13;14.80;79.90
32640;DHT22;19049;52.524;11.468;2022-08-01T23:43:42;14.70;80.30
32640;DHT22;19049;52.524;11.468;2022-08-01T23:46:09;14.60;80.60
32640;DHT22;19049;52.524;11.468;2022-08-01T23:48:37;14.60;80.40
32640;DHT22;19049;52.524;11.468;2022-08-01T23:51:05;14.50;80.50
32640;DHT22;19049;52.524;11.468;2022-08-01T23:53:32;14.40;80.70
32640;DHT22;19049;52.524;11.468;2022-08-01T23:56:01;14.40;80.70
32640;DHT22;19049;52.524;11.468;2022-08-01T23:58:27;14.30;81.00
